sensor_id;sensor_type;location;lat;lon;timestamp;pressure;altitude;pressure_sealevel;temperature;humidity
9277;BME280;4676;42.678;23.244;2022-09-20T00:00:37;94189.88;;;10.62;100.00
9277;BME280;4676;42.678;23.244;2022-09-20T00:03:04;94191.75;;;10.57;100.00
9277;BME280;4676;42.678;23.244;2022-09-20T00:05:32;94184.44;;;10.49;100.00
9277;BME280;4676;42.678;23.244;2022-09-20T00:08:02;94188.63;;;10.50;100.00
9277;BME280;4676;42.678;23.244;2022-09-20T00:10:31;94185.66;;;10.39;100.00
9277;BME280;4676;42.678;23.244;2022-09-20T00:13:00;94176.59;;;10.34;100.00
9277;BME280;4676;42.678;23.244;2022-09-20T00:15:27;94189.91;;;10.39;100.00
9277;BME280;4676;42.678;23.244;2022-09-20T00:17:54;94195.81;;;10.39;100.00
9277;BME280;4676;42.678;23.244;2022-09-20T00:20:21;94191.72;;;10.35;100.00
9277;BME280;4676;42.678;23.244;2022-09-20T00:22:48;94199.94;;;10.42;100.00
9277;BME280;4676;42.678;23.244;2022-09-20T00:25:17;94197.97;;;10.48;100.00
9277;BME280;4676;42.678;23.244;2022-09-20T00:27:44;94187.09;;;10.46;100.00
9277;BME280;4676;42.678;23.244;2022-09-20T00:30:12;94196.94;;;10.54;100.00
9277;BME280;4676;42.678;23.244;2022-09-20T00:32:39;94193.75;;;10.49;100.00
9277;BME280;4676;42.678;23.244;2022-09-20T00:35:06;94193.56;;;10.53;100.00
9277;BME280;4676;42.678;23.244;2022-09-20T00:37:33;94121.94;;;10.05;100.00
9277;BME280;4676;42.678;23.244;2022-09-20T00:40:00;94180.44;;;10.44;100.00
9277;BME280;4676;42.678;23.244;2022-09-20T00:42:29;94175.41;;;10.42;100.00
9277;BME280;4676;42.678;23.244;2022-09-20T00:44:57;94184.09;;;10.37;100.00
9277;BME280;4676;42.678;23.244;2022-09-20T00:47:33;94193.16;;;10.42;100.00
9277;BME280;4676;42.678;23.244;2022-09-20T00:50:06;94193.41;;;10.36;100.00
9277;BME280;4676;42.678;23.244;2022-09-20T00:52:38;94197.50;;;10.39;100.00
9277;BME280;4676;42.678;23.244;2022-09-20T00:55:08;94190.91;;;10.35;100.00
9277;BME280;4676;42.678;23.244;2022-09-20T00:57:37;94187.63;;;10.33;100.00
9277;BME280;4676;42.678;23.244;2022-09-20T01:00:07;94190.19;;;10.31;97.55
9277;BME280;4676;42.678;23.244;2022-09-20T01:02:36;94189.69;;;10.23;100.00
9277;BME280;4676;42.678;23.244;2022-09-20T01:05:06;94183.72;;;10.24;100.00
9277;BME280;4676;42.678;23.244;2022-09-20T01:07:34;94185.44;;;10.24;100.00
9277;BME280;4676;42.678;23.244;2022-09-20T01:10:01;94192.13;;;10.25;100.00
9277;BME280;4676;42.678;23.244;2022-09-20T01:12:31;94192.81;;;10.30;100.00
9277;BME280;4676;42.678;23.244;2022-09-20T01:15:02;94197.09;;;10.28;100.00
9277;BME280;4676;42.678;23.244;2022-09-20T01:17:31;94194.47;;;10.31;100.00
9277;BME280;4676;42.678;23.244;2022-09-20T01:20:08;94191.16;;;10.29;98.63
9277;BME280;4676;42.678;23.244;2022-09-20T01:22:46;94191.38;;;10.23;98.65
9277;BME280;4676;42.678;23.244;2022-09-20T01:25:17;94181.97;;;10.26;95.79
9277;BME280;4676;42.678;23.244;2022-09-20T01:27:52;94157.44;;;10.03;97.41
9277;BME280;4676;42.678;23.244;2022-09-20T01:30:21;94186.31;;;10.23;99.58
9277;BME280;4676;42.678;23.244;2022-09-20T01:33:06;94181.59;;;10.35;99.51
9277;BME280;4676;42.678;23.244;2022-09-20T01:35:35;94189.69;;;10.23;99.60
9277;BME280;4676;42.678;23.244;2022-09-20T01:38:17;94182.72;;;10.28;96.78
9277;BME280;4676;42.678;23.244;2022-09-20T01:40:57;94190.31;;;10.28;93.54
9277;BME280;4676;42.678;23.244;2022-09-20T01:43:30;94190.28;;;10.30;93.99
9277;BME280;4676;42.678;23.244;2022-09-20T01:46:06;94183.06;;;10.19;92.20
9277;BME280;4676;42.678;23.244;2022-09-20T01:48:38;94195.72;;;10.19;94.21
9277;BME280;4676;42.678;23.244;2022-09-20T01:51:30;94183.00;;;9.97;95.78
9277;BME280;4676;42.678;23.244;2022-09-20T01:54:17;94202.84;;;10.08;97.00
9277;BME280;4676;42.678;23.244;2022-09-20T01:57:18;94201.28;;;10.06;96.07
9277;BME280;4676;42.678;23.244;2022-09-20T02:00:08;94193.59;;;10.07;96.92
9277;BME280;4676;42.678;23.244;2022-09-20T02:06:15;94173.34;;;10.07;99.44
9277;BME280;4676;42.678;23.244;2022-09-20T02:09:20;94164.72;;;9.89;96.78
9277;BME280;4676;42.678;23.244;2022-09-20T02:12:06;94166.50;;;9.87;96.18
9277;BME280;4676;42.678;23.244;2022-09-20T02:14:45;94167.47;;;9.83;95.48
9277;BME280;4676;42.678;23.244;2022-09-20T02:17:25;94166.03;;;9.76;97.63
9277;BME280;4676;42.678;23.244;2022-09-20T02:20:10;94175.41;;;9.74;98.01
9277;BME280;4676;42.678;23.244;2022-09-20T02:22:50;94183.38;;;9.64;100.00
9277;BME280;4676;42.678;23.244;2022-09-20T02:25:41;94172.31;;;9.66;100.00
9277;BME280;4676;42.678;23.244;2022-09-20T02:28:22;94165.03;;;9.57;100.00
9277;BME280;4676;42.678;23.244;2022-09-20T02:30:57;94170.28;;;9.52;100.00
9277;BME280;4676;42.678;23.244;2022-09-20T02:33:46;94177.91;;;9.51;100.00
9277;BME280;4676;42.678;23.244;2022-09-20T02:36:32;94176.34;;;9.47;100.00
9277;BME280;4676;42.678;23.244;2022-09-20T02:39:09;94172.63;;;9.32;100.00
9277;BME280;4676;42.678;23.244;2022-09-20T02:42:01;94175.13;;;9.34;100.00
9277;BME280;4676;42.678;23.244;2022-09-20T02:44:49;94180.34;;;9.29;100.00
9277;BME280;4676;42.678;23.244;2022-09-20T02:47:24;94182.09;;;9.27;100.00
9277;BME280;4676;42.678;23.244;2022-09-20T02:52:50;94177.28;;;9.20;100.00
9277;BME280;4676;42.678;23.244;2022-09-20T02:55:37;94185.56;;;9.25;100.00
9277;BME280;4676;42.678;23.244;2022-09-20T02:58:22;94186.47;;;9.22;100.00
9277;BME280;4676;42.678;23.244;2022-09-20T03:00:58;94173.44;;;9.10;100.00
9277;BME280;4676;42.678;23.244;2022-09-20T03:03:36;94182.56;;;9.14;100.00
9277;BME280;4676;42.678;23.244;2022-09-20T03:06:16;94191.81;;;9.15;100.00
9277;BME280;4676;42.678;23.244;2022-09-20T03:08:51;94188.50;;;9.13;100.00
9277;BME280;4676;42.678;23.244;2022-09-20T03:11:27;94176.09;;;9.05;100.00
9277;BME280;4676;42.678;23.244;2022-09-20T03:14:05;94185.75;;;9.19;100.00
9277;BME280;4676;42.678;23.244;2022-09-20T03:16:43;94192.91;;;9.06;100.00
9277;BME280;4676;42.678;23.244;2022-09-20T03:19:17;94192.88;;;9.08;100.00
9277;BME280;4676;42.678;23.244;2022-09-20T03:21:59;94186.81;;;9.12;100.00
9277;BME280;4676;42.678;23.244;2022-09-20T03:24:41;94193.41;;;9.17;100.00
9277;BME280;4676;42.678;23.244;2022-09-20T03:27:18;94196.19;;;9.10;100.00
9277;BME280;4676;42.678;23.244;2022-09-20T03:29:59;94204.00;;;9.02;100.00
9277;BME280;4676;42.678;23.244;2022-09-20T03:32:41;94194.03;;;8.97;100.00
9277;BME280;4676;42.678;23.244;2022-09-20T03:35:22;94204.72;;;9.06;100.00
9277;BME280;4676;42.678;23.244;2022-09-20T03:38:05;94204.00;;;9.02;100.00
9277;BME280;4676;42.678;23.244;2022-09-20T03:40:53;94171.97;;;8.76;100.00
9277;BME280;4676;42.678;23.244;2022-09-20T03:43:31;94204.25;;;8.94;100.00
9277;BME280;4676;42.678;23.244;2022-09-20T03:46:12;94212.88;;;8.89;100.00
9277;BME280;4676;42.678;23.244;2022-09-20T03:51:35;94209.81;;;8.79;100.00
9277;BME280;4676;42.678;23.244;2022-09-20T03:54:41;94197.31;;;8.75;100.00
9277;BME280;4676;42.678;23.244;2022-09-20T04:00:07;94200.50;;;8.80;100.00
9277;BME280;4676;42.678;23.244;2022-09-20T04:02:43;94201.31;;;8.80;100.00
9277;BME280;4676;42.678;23.244;2022-09-20T04:05:16;94197.06;;;8.82;100.00
9277;BME280;4676;42.678;23.244;2022-09-20T04:07:54;94206.47;;;8.77;100.00
9277;BME280;4676;42.678;23.244;2022-09-20T04:10:35;94204.81;;;8.76;100.00
9277;BME280;4676;42.678;23.244;2022-09-20T04:13:16;94221.75;;;8.74;100.00
9277;BME280;4676;42.678;23.244;2022-09-20T04:15:57;94216.59;;;8.77;100.00
9277;BME280;4676;42.678;23.244;2022-09-20T04:18:32;94220.53;;;8.86;100.00
9277;BME280;4676;42.678;23.244;2022-09-20T04:21:05;94220.66;;;8.83;100.00
9277;BME280;4676;42.678;23.244;2022-09-20T04:23:40;94196.38;;;8.77;100.00
9277;BME280;4676;42.678;23.244;2022-09-20T04:26:10;94211.16;;;8.89;100.00
9277;BME280;4676;42.678;23.244;2022-09-20T04:28:42;94221.41;;;8.85;100.00
9277;BME280;4676;42.678;23.244;2022-09-20T04:31:19;94226.47;;;8.85;100.00
9277;BME280;4676;42.678;23.244;2022-09-20T04:33:49;94237.25;;;8.90;100.00
9277;BME280;4676;42.678;23.244;2022-09-20T04:36:31;94235.50;;;8.92;100.00
9277;BME280;4676;42.678;23.244;2022-09-20T04:39:12;94228.75;;;8.92;100.00
9277;BME280;4676;42.678;23.244;2022-09-20T04:45:21;94243.13;;;8.90;100.00
9277;BME280;4676;42.678;23.244;2022-09-20T04:57:34;94226.63;;;9.07;100.00
9277;BME280;4676;42.678;23.244;2022-09-20T05:00:08;94230.38;;;9.20;100.00
9277;BME280;4676;42.678;23.244;2022-09-20T05:05:47;94219.94;;;9.55;100.00
9277;BME280;4676;42.678;23.244;2022-09-20T05:08:47;94232.09;;;9.69;100.00
9277;BME280;4676;42.678;23.244;2022-09-20T05:11:38;94233.63;;;9.74;100.00
9277;BME280;4676;42.678;23.244;2022-09-20T05:18:02;94251.50;;;10.18;100.00
9277;BME280;4676;42.678;23.244;2022-09-20T05:20:45;94223.94;;;10.09;100.00
9277;BME280;4676;42.678;23.244;2022-09-20T05:23:36;94244.09;;;10.12;100.00
9277;BME280;4676;42.678;23.244;2022-09-20T05:26:09;94250.72;;;10.16;100.00
9277;BME280;4676;42.678;23.244;2022-09-20T05:28:45;94248.75;;;10.24;100.00
9277;BME280;4676;42.678;23.244;2022-09-20T05:31:21;94249.84;;;10.17;100.00
9277;BME280;4676;42.678;23.244;2022-09-20T05:33:59;94247.94;;;10.23;100.00
9277;BME280;4676;42.678;23.244;2022-09-20T05:36:39;94256.44;;;10.21;100.00
9277;BME280;4676;42.678;23.244;2022-09-20T05:39:22;94247.81;;;10.26;100.00
9277;BME280;4676;42.678;23.244;2022-09-20T05:41:56;94254.78;;;10.43;99.35
9277;BME280;4676;42.678;23.244;2022-09-20T05:44:40;94256.97;;;10.30;98.79
9277;BME280;4676;42.678;23.244;2022-09-20T05:47:17;94243.75;;;10.22;98.43
9277;BME280;4676;42.678;23.244;2022-09-20T05:49:53;94252.16;;;10.23;98.55
9277;BME280;4676;42.678;23.244;2022-09-20T05:52:34;94252.72;;;10.31;98.26
9277;BME280;4676;42.678;23.244;2022-09-20T05:55:17;94222.53;;;10.25;100.00
9277;BME280;4676;42.678;23.244;2022-09-20T05:57:58;94259.34;;;10.57;97.27
9277;BME280;4676;42.678;23.244;2022-09-20T06:00:32;94262.34;;;10.66;95.13
9277;BME280;4676;42.678;23.244;2022-09-20T06:03:08;94257.59;;;10.80;95.31
9277;BME280;4676;42.678;23.244;2022-09-20T06:05:46;94252.00;;;10.94;94.72
9277;BME280;4676;42.678;23.244;2022-09-20T06:08:25;94251.88;;;11.19;95.67
9277;BME280;4676;42.678;23.244;2022-09-20T06:11:01;94261.06;;;11.21;92.84
9277;BME280;4676;42.678;23.244;2022-09-20T06:13:53;94250.75;;;11.26;89.64
9277;BME280;4676;42.678;23.244;2022-09-20T06:16:34;94257.53;;;11.45;91.05
9277;BME280;4676;42.678;23.244;2022-09-20T06:19:10;94258.97;;;11.51;90.31
9277;BME280;4676;42.678;23.244;2022-09-20T06:21:49;94253.41;;;11.63;86.92
9277;BME280;4676;42.678;23.244;2022-09-20T06:24:30;94255.59;;;11.72;85.86
9277;BME280;4676;42.678;23.244;2022-09-20T06:27:01;94256.25;;;11.77;87.71
9277;BME280;4676;42.678;23.244;2022-09-20T06:29:33;94254.72;;;11.73;84.98
9277;BME280;4676;42.678;23.244;2022-09-20T06:32:01;94263.56;;;11.63;85.91
9277;BME280;4676;42.678;23.244;2022-09-20T06:34:28;94260.38;;;11.58;88.50
9277;BME280;4676;42.678;23.244;2022-09-20T06:37:02;94258.00;;;11.75;91.04
9277;BME280;4676;42.678;23.244;2022-09-20T06:39:56;94253.13;;;11.91;88.60
9277;BME280;4676;42.678;23.244;2022-09-20T06:42:43;94255.16;;;12.22;89.17
9277;BME280;4676;42.678;23.244;2022-09-20T06:45:09;94254.00;;;12.29;86.25
9277;BME280;4676;42.678;23.244;2022-09-20T06:47:36;94263.69;;;12.21;83.89
9277;BME280;4676;42.678;23.244;2022-09-20T06:50:05;94261.06;;;12.22;80.83
9277;BME280;4676;42.678;23.244;2022-09-20T06:52:33;94263.75;;;12.19;81.71
9277;BME280;4676;42.678;23.244;2022-09-20T06:55:00;94254.00;;;12.29;84.22
9277;BME280;4676;42.678;23.244;2022-09-20T06:57:34;94247.47;;;12.23;79.77
9277;BME280;4676;42.678;23.244;2022-09-20T07:00:03;94263.69;;;12.21;81.59
9277;BME280;4676;42.678;23.244;2022-09-20T07:02:32;94269.00;;;12.15;79.20
9277;BME280;4676;42.678;23.244;2022-09-20T07:04:58;94275.63;;;12.19;77.99
9277;BME280;4676;42.678;23.244;2022-09-20T07:07:25;94274.59;;;12.23;80.02
9277;BME280;4676;42.678;23.244;2022-09-20T07:09:53;94265.41;;;12.00;82.68
9277;BME280;4676;42.678;23.244;2022-09-20T07:12:20;94283.41;;;11.95;79.41
9277;BME280;4676;42.678;23.244;2022-09-20T07:14:46;94267.78;;;11.84;80.90
9277;BME280;4676;42.678;23.244;2022-09-20T07:17:15;94277.44;;;11.76;81.96
9277;BME280;4676;42.678;23.244;2022-09-20T07:19:41;94285.75;;;11.80;84.49
9277;BME280;4676;42.678;23.244;2022-09-20T07:22:08;94279.78;;;11.81;80.61
9277;BME280;4676;42.678;23.244;2022-09-20T07:24:35;94286.13;;;11.91;81.74
9277;BME280;4676;42.678;23.244;2022-09-20T07:27:04;94284.84;;;12.01;80.44
9277;BME280;4676;42.678;23.244;2022-09-20T07:29:31;94280.97;;;12.13;81.01
9277;BME280;4676;42.678;23.244;2022-09-20T07:31:59;94275.56;;;12.20;82.29
9277;BME280;4676;42.678;23.244;2022-09-20T07:34:26;94267.84;;;12.22;80.02
9277;BME280;4676;42.678;23.244;2022-09-20T07:36:54;94269.88;;;12.34;77.36
9277;BME280;4676;42.678;23.244;2022-09-20T07:39:24;94248.16;;;12.27;77.86
9277;BME280;4676;42.678;23.244;2022-09-20T07:41:51;94262.53;;;12.28;77.74
9277;BME280;4676;42.678;23.244;2022-09-20T07:44:19;94265.94;;;12.27;79.53
9277;BME280;4676;42.678;23.244;2022-09-20T07:46:49;94265.31;;;12.22;76.34
9277;BME280;4676;42.678;23.244;2022-09-20T07:49:16;94266.44;;;12.35;78.82
9277;BME280;4676;42.678;23.244;2022-09-20T07:51:43;94252.56;;;12.23;79.80
9277;BME280;4676;42.678;23.244;2022-09-20T07:54:10;94250.84;;;12.42;76.16
9277;BME280;4676;42.678;23.244;2022-09-20T07:56:36;94260.53;;;12.34;78.59
9277;BME280;4676;42.678;23.244;2022-09-20T07:59:03;94250.28;;;12.36;73.12
9277;BME280;4676;42.678;23.244;2022-09-20T08:01:32;94263.63;;;12.41;72.17
9277;BME280;4676;42.678;23.244;2022-09-20T08:03:59;94251.06;;;12.38;78.00
9277;BME280;4676;42.678;23.244;2022-09-20T08:06:26;94260.25;;;12.40;74.54
9277;BME280;4676;42.678;23.244;2022-09-20T08:08:53;94262.38;;;12.49;73.83
9277;BME280;4676;42.678;23.244;2022-09-20T08:11:22;94258.81;;;12.53;71.04
9277;BME280;4676;42.678;23.244;2022-09-20T08:13:51;94266.38;;;12.55;71.59
9277;BME280;4676;42.678;23.244;2022-09-20T08:16:19;94261.75;;;12.63;74.85
9277;BME280;4676;42.678;23.244;2022-09-20T08:18:48;94266.16;;;12.60;70.70
9277;BME280;4676;42.678;23.244;2022-09-20T08:21:16;94261.44;;;12.52;69.37
9277;BME280;4676;42.678;23.244;2022-09-20T08:23:44;94270.84;;;12.50;72.65
9277;BME280;4676;42.678;23.244;2022-09-20T08:26:13;94224.88;;;12.36;74.27
9277;BME280;4676;42.678;23.244;2022-09-20T08:28:42;94262.25;;;12.71;75.50
9277;BME280;4676;42.678;23.244;2022-09-20T08:31:12;94269.25;;;12.85;71.88
9277;BME280;4676;42.678;23.244;2022-09-20T08:33:39;94253.59;;;12.75;73.52
9277;BME280;4676;42.678;23.244;2022-09-20T08:36:11;94258.84;;;12.89;73.39
9277;BME280;4676;42.678;23.244;2022-09-20T08:38:38;94251.03;;;12.94;72.48
9277;BME280;4676;42.678;23.244;2022-09-20T08:41:10;94251.25;;;13.07;72.22
9277;BME280;4676;42.678;23.244;2022-09-20T08:43:39;94251.63;;;13.35;66.65
9277;BME280;4676;42.678;23.244;2022-09-20T08:46:13;94233.22;;;13.30;66.48
9277;BME280;4676;42.678;23.244;2022-09-20T08:48:42;94252.09;;;13.43;65.54
9277;BME280;4676;42.678;23.244;2022-09-20T08:51:12;94242.50;;;13.48;71.12
9277;BME280;4676;42.678;23.244;2022-09-20T08:53:44;94238.16;;;13.67;68.33
9277;BME280;4676;42.678;23.244;2022-09-20T08:56:12;94238.81;;;13.88;69.74
9277;BME280;4676;42.678;23.244;2022-09-20T08:58:39;94241.88;;;13.94;64.55
9277;BME280;4676;42.678;23.244;2022-09-20T09:01:06;94241.28;;;13.89;64.16
9277;BME280;4676;42.678;23.244;2022-09-20T09:03:33;94234.06;;;13.97;61.28
9277;BME280;4676;42.678;23.244;2022-09-20T09:06:00;94224.91;;;14.11;63.07
9277;BME280;4676;42.678;23.244;2022-09-20T09:08:33;94226.91;;;14.21;66.83
9277;BME280;4676;42.678;23.244;2022-09-20T09:11:02;94231.19;;;14.21;60.84
9277;BME280;4676;42.678;23.244;2022-09-20T09:13:36;94220.78;;;14.08;60.94
9277;BME280;4676;42.678;23.244;2022-09-20T09:16:07;94214.16;;;14.21;62.01
9277;BME280;4676;42.678;23.244;2022-09-20T09:18:37;94219.66;;;14.29;59.96
9277;BME280;4676;42.678;23.244;2022-09-20T09:21:06;94213.72;;;14.46;62.35
9277;BME280;4676;42.678;23.244;2022-09-20T09:23:40;94220.88;;;14.71;57.81
9277;BME280;4676;42.678;23.244;2022-09-20T09:26:15;94214.22;;;14.84;58.58
9277;BME280;4676;42.678;23.244;2022-09-20T09:28:42;94209.34;;;14.79;55.47
9277;BME280;4676;42.678;23.244;2022-09-20T09:31:20;94212.63;;;14.81;59.66
9277;BME280;4676;42.678;23.244;2022-09-20T09:33:47;94210.19;;;14.80;55.57
9277;BME280;4676;42.678;23.244;2022-09-20T09:36:16;94199.72;;;14.69;58.32
9277;BME280;4676;42.678;23.244;2022-09-20T09:38:45;94195.38;;;14.55;57.06
9277;BME280;4676;42.678;23.244;2022-09-20T09:41:23;94194.94;;;14.31;57.88
9277;BME280;4676;42.678;23.244;2022-09-20T09:43:57;94188.25;;;14.13;59.93
9277;BME280;4676;42.678;23.244;2022-09-20T09:46:25;94195.28;;;14.08;60.22
9277;BME280;4676;42.678;23.244;2022-09-20T09:49:06;94184.72;;;14.31;61.91
9277;BME280;4676;42.678;23.244;2022-09-20T09:51:34;94194.47;;;14.40;61.15
9277;BME280;4676;42.678;23.244;2022-09-20T09:54:03;94200.38;;;14.41;58.40
9277;BME280;4676;42.678;23.244;2022-09-20T09:56:46;94192.03;;;14.22;57.74
9277;BME280;4676;42.678;23.244;2022-09-20T09:59:47;94190.72;;;14.30;59.16
9277;BME280;4676;42.678;23.244;2022-09-20T10:02:27;94170.78;;;14.38;55.88
9277;BME280;4676;42.678;23.244;2022-09-20T10:05:03;94189.22;;;14.59;59.19
9277;BME280;4676;42.678;23.244;2022-09-20T10:07:40;94203.66;;;14.43;56.35
9277;BME280;4676;42.678;23.244;2022-09-20T10:10:19;94200.94;;;14.30;57.36
9277;BME280;4676;42.678;23.244;2022-09-20T10:13:01;94198.88;;;14.21;59.20
9277;BME280;4676;42.678;23.244;2022-09-20T10:15:40;94189.06;;;14.29;59.80
9277;BME280;4676;42.678;23.244;2022-09-20T10:18:24;94189.56;;;14.20;55.67
9277;BME280;4676;42.678;23.244;2022-09-20T10:21:03;94186.63;;;14.28;56.99
9277;BME280;4676;42.678;23.244;2022-09-20T10:23:51;94188.22;;;14.46;58.49
9277;BME280;4676;42.678;23.244;2022-09-20T10:26:39;94195.13;;;14.44;55.34
9277;BME280;4676;42.678;23.244;2022-09-20T10:29:14;94195.94;;;14.60;55.88
9277;BME280;4676;42.678;23.244;2022-09-20T10:31:55;94187.97;;;14.50;54.25
9277;BME280;4676;42.678;23.244;2022-09-20T10:37:25;94188.19;;;14.30;54.22
9277;BME280;4676;42.678;23.244;2022-09-20T10:40:03;94183.16;;;14.29;55.77
9277;BME280;4676;42.678;23.244;2022-09-20T10:42:41;94185.09;;;14.41;55.34
9277;BME280;4676;42.678;23.244;2022-09-20T10:45:31;94191.34;;;14.67;55.64
9277;BME280;4676;42.678;23.244;2022-09-20T10:48:04;94185.59;;;14.63;53.29
9277;BME280;4676;42.678;23.244;2022-09-20T10:50:39;94193.97;;;14.49;55.03
9277;BME280;4676;42.678;23.244;2022-09-20T10:53:19;94190.91;;;14.43;53.69
9277;BME280;4676;42.678;23.244;2022-09-20T10:55:56;94192.06;;;14.53;53.46
9277;BME280;4676;42.678;23.244;2022-09-20T10:58:49;94198.41;;;14.62;52.88
9277;BME280;4676;42.678;23.244;2022-09-20T11:01:27;94189.13;;;14.61;51.97
9277;BME280;4676;42.678;23.244;2022-09-20T11:04:31;94195.03;;;14.61;53.16
9277;BME280;4676;42.678;23.244;2022-09-20T11:07:09;94190.91;;;14.74;53.37
9277;BME280;4676;42.678;23.244;2022-09-20T11:09:43;94185.97;;;14.71;52.28
9277;BME280;4676;42.678;23.244;2022-09-20T11:12:19;94185.50;;;14.65;52.03
9277;BME280;4676;42.678;23.244;2022-09-20T11:14:54;94184.91;;;14.75;52.67
9277;BME280;4676;42.678;23.244;2022-09-20T11:17:23;94169.94;;;14.69;53.08
9277;BME280;4676;42.678;23.244;2022-09-20T11:19:55;94166.72;;;14.81;54.49
9277;BME280;4676;42.678;23.244;2022-09-20T11:22:28;94178.88;;;14.92;51.95
9277;BME280;4676;42.678;23.244;2022-09-20T11:25:01;94176.31;;;14.92;52.65
9277;BME280;4676;42.678;23.244;2022-09-20T11:27:32;94170.63;;;15.02;53.94
9277;BME280;4676;42.678;23.244;2022-09-20T11:30:06;94156.88;;;15.05;52.09
9277;BME280;4676;42.678;23.244;2022-09-20T11:32:40;94158.09;;;15.14;56.04
9277;BME280;4676;42.678;23.244;2022-09-20T11:35:21;94165.16;;;15.38;54.77
9277;BME280;4676;42.678;23.244;2022-09-20T11:37:56;94162.38;;;15.43;52.89
9277;BME280;4676;42.678;23.244;2022-09-20T11:40:30;94154.28;;;15.51;55.38
9277;BME280;4676;42.678;23.244;2022-09-20T11:43:00;94150.25;;;15.46;54.41
9277;BME280;4676;42.678;23.244;2022-09-20T11:45:29;94152.84;;;15.61;52.29
9277;BME280;4676;42.678;23.244;2022-09-20T11:48:01;94154.97;;;15.68;49.11
9277;BME280;4676;42.678;23.244;2022-09-20T11:50:44;94145.19;;;15.75;53.02
9277;BME280;4676;42.678;23.244;2022-09-20T11:53:24;94140.09;;;15.75;50.88
9277;BME280;4676;42.678;23.244;2022-09-20T11:55:58;94148.38;;;15.92;52.00
9277;BME280;4676;42.678;23.244;2022-09-20T11:58:27;94139.00;;;15.93;49.28
9277;BME280;4676;42.678;23.244;2022-09-20T12:00:57;94139.53;;;15.84;51.93
9277;BME280;4676;42.678;23.244;2022-09-20T12:03:30;94147.09;;;15.99;50.83
9277;BME280;4676;42.678;23.244;2022-09-20T12:05:59;94143.53;;;16.02;51.17
9277;BME280;4676;42.678;23.244;2022-09-20T12:08:29;94136.78;;;16.01;49.17
9277;BME280;4676;42.678;23.244;2022-09-20T12:10:59;94142.63;;;16.03;49.88
9277;BME280;4676;42.678;23.244;2022-09-20T12:13:30;94138.25;;;15.77;48.76
9277;BME280;4676;42.678;23.244;2022-09-20T12:16:04;94140.28;;;15.72;47.70
9277;BME280;4676;42.678;23.244;2022-09-20T12:18:44;94130.50;;;15.64;47.88
9277;BME280;4676;42.678;23.244;2022-09-20T12:21:13;94126.94;;;15.81;47.41
9277;BME280;4676;42.678;23.244;2022-09-20T12:24:18;94117.72;;;15.92;48.30
9277;BME280;4676;42.678;23.244;2022-09-20T12:26:47;94139.50;;;16.12;47.31
9277;BME280;4676;42.678;23.244;2022-09-20T12:32:45;94131.22;;;15.80;50.03
9277;BME280;4676;42.678;23.244;2022-09-20T12:38:37;94136.13;;;15.69;48.70
9277;BME280;4676;42.678;23.244;2022-09-20T12:41:10;94135.03;;;15.59;48.02
9277;BME280;4676;42.678;23.244;2022-09-20T12:43:51;94131.13;;;15.54;48.94
9277;BME280;4676;42.678;23.244;2022-09-20T12:46:21;94132.84;;;15.53;47.77
9277;BME280;4676;42.678;23.244;2022-09-20T12:48:50;94127.31;;;15.45;49.75
9277;BME280;4676;42.678;23.244;2022-09-20T12:51:21;94133.88;;;15.51;48.72
9277;BME280;4676;42.678;23.244;2022-09-20T12:54:09;94126.53;;;15.44;46.75
9277;BME280;4676;42.678;23.244;2022-09-20T12:56:39;94135.47;;;15.37;47.68
9277;BME280;4676;42.678;23.244;2022-09-20T12:59:20;94120.69;;;15.42;47.64
9277;BME280;4676;42.678;23.244;2022-09-20T13:01:48;94118.88;;;15.44;47.88
9277;BME280;4676;42.678;23.244;2022-09-20T13:07:43;94119.63;;;15.61;48.12
9277;BME280;4676;42.678;23.244;2022-09-20T13:10:25;94109.88;;;15.67;48.06
9277;BME280;4676;42.678;23.244;2022-09-20T13:12:58;94120.53;;;15.60;48.57
9277;BME280;4676;42.678;23.244;2022-09-20T13:15:26;94127.03;;;15.65;47.10
9277;BME280;4676;42.678;23.244;2022-09-20T13:17:55;94120.25;;;15.50;46.29
9277;BME280;4676;42.678;23.244;2022-09-20T13:20:27;94112.94;;;15.44;47.06
9277;BME280;4676;42.678;23.244;2022-09-20T13:22:57;94108.66;;;15.44;47.02
9277;BME280;4676;42.678;23.244;2022-09-20T13:25:25;94111.66;;;15.37;47.53
9277;BME280;4676;42.678;23.244;2022-09-20T13:27:59;94121.44;;;15.44;45.78
9277;BME280;4676;42.678;23.244;2022-09-20T13:30:28;94115.75;;;15.39;46.46
9277;BME280;4676;42.678;23.244;2022-09-20T13:33:14;94124.84;;;15.29;46.34
9277;BME280;4676;42.678;23.244;2022-09-20T13:35:43;94114.19;;;15.37;48.43
9277;BME280;4676;42.678;23.244;2022-09-20T13:38:13;94125.97;;;15.39;46.50
9277;BME280;4676;42.678;23.244;2022-09-20T13:40:48;94115.03;;;15.37;45.47
9277;BME280;4676;42.678;23.244;2022-09-20T13:43:23;94104.97;;;15.34;49.02
9277;BME280;4676;42.678;23.244;2022-09-20T13:45:55;94099.06;;;15.34;47.10
9277;BME280;4676;42.678;23.244;2022-09-20T13:48:23;94101.56;;;15.49;46.52
9277;BME280;4676;42.678;23.244;2022-09-20T13:50:51;94109.88;;;15.53;44.95
9277;BME280;4676;42.678;23.244;2022-09-20T13:53:22;94114.19;;;15.37;46.05
9277;BME280;4676;42.678;23.244;2022-09-20T13:55:49;94102.16;;;15.39;47.79
9277;BME280;4676;42.678;23.244;2022-09-20T13:58:19;94109.44;;;15.45;47.67
9277;BME280;4676;42.678;23.244;2022-09-20T14:00:49;94100.34;;;15.41;47.69
9277;BME280;4676;42.678;23.244;2022-09-20T14:03:17;94115.19;;;15.34;47.24
9277;BME280;4676;42.678;23.244;2022-09-20T14:05:45;94115.00;;;15.23;48.94
9277;BME280;4676;42.678;23.244;2022-09-20T14:08:20;94110.53;;;15.27;50.10
9277;BME280;4676;42.678;23.244;2022-09-20T14:11:02;94102.78;;;15.42;50.55
9277;BME280;4676;42.678;23.244;2022-09-20T14:13:34;94099.41;;;15.42;51.05
9277;BME280;4676;42.678;23.244;2022-09-20T14:16:03;94100.44;;;15.39;49.73
9277;BME280;4676;42.678;23.244;2022-09-20T14:18:32;94098.88;;;15.37;50.30
9277;BME280;4676;42.678;23.244;2022-09-20T14:21:00;94098.59;;;15.41;52.05
9277;BME280;4676;42.678;23.244;2022-09-20T14:23:28;94101.78;;;15.45;50.58
9277;BME280;4676;42.678;23.244;2022-09-20T14:26:16;94098.78;;;15.38;50.02
9277;BME280;4676;42.678;23.244;2022-09-20T14:28:47;94085.53;;;15.32;52.35
9277;BME280;4676;42.678;23.244;2022-09-20T14:31:15;94092.31;;;15.33;52.29
9277;BME280;4676;42.678;23.244;2022-09-20T14:33:46;94101.44;;;15.37;52.28